ADDS METAR Data INFO
IDs: Format: Raw Decoded Include TAF

Data at: 1154 UTC 23 Jun 2018

KZPH 231135Z AUTO 00000KT 5SM BR CLR 24/24 A3001 RMK AO2 T02370235
KZPH 231115Z AUTO 00000KT 2SM BR CLR 23/23 A3001 RMK AO2 T02320231
KZPH 231055Z AUTO 00000KT 1 3/4SM BR VV007 24/23 A3000 RMK AO2 T02360234
KZPH 231015Z AUTO 00000KT 5SM BR CLR 24/24 A2999 RMK AO2 T02370235
KZPH 230955Z AUTO 00000KT 2SM BR CLR 24/24 A2999 RMK AO2 VIS 1/2V5 T02380236
KZPH 230935Z AUTO 00000KT 4SM BR CLR 24/24 A2999 RMK AO2 T02400237
KZPH 230915Z AUTO 00000KT 1 1/2SM BR VV007 24/24 A2998 RMK AO2 T02400237
KZPH 230855Z AUTO 00000KT 3SM BR CLR 24/24 A2998 RMK AO2 T02410239
KZPH 230835Z AUTO 00000KT 5SM BR CLR 24/24 A2999 RMK AO2 T02430240
KZPH 230815Z AUTO 00000KT 7SM CLR 25/24 A2999 RMK AO2 T02450240
KZPH 230755Z AUTO 00000KT 7SM CLR 25/24 A2998 RMK AO2 T02450240
KZPH 230735Z AUTO 00000KT 7SM CLR 24/24 A2998 RMK AO2 T02420237
KZPH 230715Z AUTO 00000KT 7SM CLR 25/24 A2999 RMK AO2 T02450240
KZPH 230655Z AUTO 00000KT 7SM CLR 25/24 A2999 RMK AO2 T02450239
KZPH 230635Z AUTO 14003KT 10SM CLR 25/24 A2999 RMK AO2 T02490241
KZPH 230615Z AUTO 15003KT 10SM CLR 25/24 A3000 RMK AO2 T02500242
KZPH 230555Z AUTO 00000KT 10SM CLR 25/24 A3000 RMK AO2 T02500240 10302 20250 403350234
KZPH 230535Z AUTO 00000KT 10SM CLR 26/24 A3000 RMK AO2 T02560240
KZPH 230515Z AUTO 00000KT 10SM CLR 26/24 A3000 RMK AO2 T02590240
KZPH 230455Z AUTO 27004KT 10SM CLR 26/24 A3000 RMK AO2 T02610240
KZPH 230435Z AUTO 28005KT 10SM CLR 26/24 A3000 RMK AO2 T02590240
KZPH 230415Z AUTO 00000KT 10SM CLR 26/24 A3000 RMK AO2 T02560238
KZPH 230355Z AUTO 00000KT 10SM CLR 26/24 A3000 RMK AO2 T02590238
KZPH 230335Z AUTO 00000KT 10SM CLR 26/24 A3000 RMK AO2 T02550240
KZPH 230315Z AUTO 00000KT 10SM CLR 26/24 A3000 RMK AO2 T02580240
KZPH 230255Z AUTO 00000KT 10SM CLR 26/24 A2999 RMK AO2 T02600238
KZPH 230235Z AUTO 00000KT 10SM CLR 26/24 A2999 RMK AO2 T02610239
KZPH 230215Z AUTO 00000KT 10SM CLR 27/24 A2999 RMK AO2 T02710235
KZPH 230155Z AUTO 00000KT 10SM CLR 28/24 A2998 RMK AO2 T02760237
KZPH 230135Z AUTO 00000KT 10SM CLR 28/24 A2998 RMK AO2 T02760240
KZPH 230115Z AUTO 00000KT 10SM CLR 28/24 A2997 RMK AO2 T02820237
KZPH 230055Z AUTO 28004KT 10SM CLR 29/24 A2997 RMK AO2 T02850240
KZPH 230035Z AUTO 27007KT 10SM SCT034 SCT041 SCT048 29/24 A2996 RMK AO2 LTG DSNT NE AND SE T02930237
KZPH 230015Z AUTO 30007KT 10SM SCT034 SCT041 BKN048 30/24 A2996 RMK AO2 LTG DSNT NE AND SE T03020237
KZPH 222355Z AUTO 28007G14KT 10SM SCT037 SCT046 30/24 A2996 RMK AO2 LTG DSNT SE 60057 T03020235 10335 20261
KZPH 222335Z AUTO 29009KT 10SM CLR 31/23 A2995 RMK AO2 LTG DSNT NE THRU SE T03100232
KZPH 222315Z AUTO 30010G15KT 10SM CLR 31/23 A2995 RMK AO2 LTG DSNT NE THRU SE T03100230
KZPH 222255Z AUTO 27008KT 10SM CLR 32/24 A2995 RMK AO2 LTG DSNT NE T03170235
KZPH 222235Z AUTO 29010KT 10SM SCT043 SCT050 32/23 A2994 RMK AO2 LTG DSNT NE AND E T03160234
KZPH 222215Z AUTO 27007KT 10SM SCT041 SCT050 31/23 A2994 RMK AO2 LTG DSNT NE AND E T03110234
KZPH 222155Z AUTO 26006KT 10SM SCT041 31/24 A2995 RMK AO2 LTG DSNT NE AND E T03100238
KZPH 222135Z AUTO 27005KT 10SM CLR 31/24 A2995 RMK AO2 LTG DSNT NE THRU SE T03050240
KZPH 222115Z AUTO 27006KT 10SM CLR 30/24 A2995 RMK AO2 LTG DSNT NE THRU SE T03000240
KZPH 222055Z AUTO 28006KT 10SM VCTS SCT065 29/25 A2994 RMK AO2 LTG DSNT NE AND E 60057 T02940247
KZPH 222035Z AUTO 28004KT 10SM VCTS SCT043 BKN050 BKN065 29/25 A2995 RMK AO2 LTG DSNT NE THRU SE T02900246
KZPH 222015Z AUTO 00000KT 10SM TS SCT020 BKN043 OVC055 27/26 A2996 RMK AO2 LTG DSNT NE THRU S T02740257
KZPH 221955Z AUTO 00000KT 2SM VCTSRA SCT009 BKN016 OVC024 27/25 A2997 RMK AO2 LTG DSNT SE AND NW P0057 T02680246
KZPH 221935Z AUTO 29012G24KT 1 1/2SM +RA SCT008 BKN015 OVC036 27/23 A2998 RMK AO2 LTG DSNT NE P0024 T02710234
KZPH 221915Z AUTO 31004KT 10SM BKN039 BKN050 OVC090 32/23 A2997 RMK AO2 T03170233
KZPH 221855Z AUTO 23006KT 10SM SCT047 SCT080 33/22 A2998 RMK AO2 T03260223
KZPH 221835Z AUTO 23009G16KT 10SM SCT050 SCT065 SCT080 33/23 A2998 RMK AO2 T03300227
KZPH 221815Z AUTO 21005KT 10SM SCT050 SCT065 SCT080 32/24 A2998 RMK AO2 T03180236
KZPH 221755Z AUTO 23005KT 10SM CLR 33/24 A2999 RMK AO2 T03310236 10331 20246
KZPH 221735Z AUTO 20007KT 10SM CLR 32/24 A2999 RMK AO2 T03210242
KZPH 221715Z AUTO 18006KT 10SM CLR 32/23 A3000 RMK AO2 T03200234
KZPH 221655Z AUTO 19007KT 10SM SCT043 31/24 A3000 RMK AO2 T03120243
KZPH 221635Z AUTO 18008KT 10SM SCT045 SCT060 31/23 A3001 RMK AO2 LTG DSNT E T03050233
KZPH 221615Z AUTO 15006KT 10SM SCT034 SCT041 SCT060 29/23 A3001 RMK AO2 LTG DSNT SE AND S T02890225
KZPH 221555Z AUTO 19005KT 10SM SCT034 SCT041 BKN060 30/21 A3001 RMK AO2 LTG DSNT SE AND S T03000213
KZPH 221535Z AUTO 21005KT 10SM -DZ SCT028 SCT042 BKN060 28/24 A3001 RMK AO2 LTG DSNT SE AND NW T02750236
KZPH 221515Z AUTO 30007KT 10SM SCT030 BKN039 BKN047 31/24 A3001 RMK AO2 T03120237
KZPH 221455Z AUTO 31007KT 10SM SCT028 SCT041 SCT049 31/24 A3000 RMK AO2 T03100238
KZPH 221435Z AUTO 30006KT 10SM SCT023 SCT028 SCT035 30/24 A3000 RMK AO2 T03000238
KZPH 221415Z AUTO 30009KT 10SM SCT023 SCT028 29/24 A3000 RMK AO2 LTG DSNT SW T02930243
KZPH 221355Z AUTO 27003KT 10SM CLR 29/25 A3001 RMK AO2 LTG DSNT SW T02860248
KZPH 221335Z AUTO 26004KT 10SM CLR 28/25 A3001 RMK AO2 T02750245
KZPH 221315Z AUTO 26003KT 10SM CLR 27/25 A3001 RMK AO2 T02710245
KZPH 221255Z AUTO 00000KT 10SM CLR 27/25 A3001 RMK AO2 T02650247
KZPH 221235Z AUTO 00000KT 10SM CLR 26/25 A3000 RMK AO2 T02590247
KZPH 221215Z AUTO 00000KT 10SM CLR 25/25 A3000 RMK AO2 T02520246
KZPH 221115Z AUTO 00000KT 7SM CLR 24/24 A2998 RMK AO2 T02370235
KZPH 221055Z AUTO 00000KT 7SM CLR 24/23 A2997 RMK AO2 T02370233
KZPH 221035Z AUTO 00000KT 7SM CLR 24/23 A2996 RMK AO2 T02370234
KZPH 221015Z AUTO 00000KT 10SM CLR 24/24 A2995 RMK AO2 T02400236
KZPH 220955Z AUTO 00000KT 10SM SCT020 24/24 A2995 RMK AO2 T02410237
KZPH 220915Z AUTO 00000KT 10SM CLR 24/24 A2993 RMK AO2 T02420238
KZPH 220855Z AUTO 00000KT 10SM CLR 24/23 A2994 RMK AO2 T02410234
KZPH 220815Z AUTO 00000KT 10SM CLR 25/24 A2993 RMK AO2 T02460238
KZPH 220755Z AUTO 00000KT 10SM CLR 25/24 A2993 RMK AO2 T02500240
KZPH 220735Z AUTO 00000KT 10SM CLR 25/24 A2994 RMK AO2 T02500238
KZPH 220715Z AUTO 00000KT 10SM CLR 25/24 A2994 RMK AO2 T02510239
KZPH 220655Z AUTO 00000KT 10SM CLR 25/24 A2994 RMK AO2 T02530240
KZPH 220635Z AUTO 00000KT 10SM CLR 26/24 A2994 RMK AO2 T02550240
KZPH 220515Z AUTO 25005KT 10SM CLR 26/24 A2997 RMK AO2 T02630243
KZPH 220455Z AUTO 24003KT 10SM CLR 27/25 A2997 RMK AO2 T02650245
KZPH 220435Z AUTO 25004KT 10SM CLR 27/24 A2998 RMK AO2 T02660243
KZPH 220415Z AUTO 27005KT 10SM CLR 27/24 A2998 RMK AO2 T02680242
KZPH 220355Z AUTO 27004KT 10SM CLR 27/24 A2998 RMK AO2 T02700242
KZPH 220335Z AUTO 26004KT 10SM CLR 27/24 A2998 RMK AO2 T02720241
KZPH 220315Z AUTO 27004KT 10SM CLR 27/24 A2998 RMK AO2 T02710241
KZPH 220255Z AUTO 26004KT 10SM CLR 27/24 A2998 RMK AO2 T02730240
KZPH 220235Z AUTO 28004KT 10SM CLR 27/24 A2998 RMK AO2 T02710240
KZPH 220215Z AUTO 27003KT 10SM CLR 27/24 A2998 RMK AO2 T02710238
KZPH 220155Z AUTO 00000KT 10SM CLR 27/24 A2997 RMK AO2 T02720237
KZPH 220135Z AUTO 25004KT 10SM CLR 28/24 A2996 RMK AO2 LTG DSNT SE T02760235
KZPH 220115Z AUTO 26004KT 10SM CLR 28/24 A2995 RMK AO2 LTG DSNT SE T02790235
KZPH 220055Z AUTO 25005KT 10SM CLR 29/24 A2994 RMK AO2 T02850235
KZPH 220035Z AUTO 26003KT 10SM CLR 29/24 A2994 RMK AO2 T02900235
KZPH 220015Z AUTO 26006KT 10SM CLR 30/24 A2993 RMK AO2 T02950238
KZPH 212355Z AUTO 26005KT 10SM CLR 30/24 A2993 RMK AO2 T03000237 10308 20284